Main page
METAR-TAF:

METAR-TAF

Airports :

Strigino International Airport

Nizhny Novgorod, Russia

latitude: 56-19-48N, longitude: 044-00E, elevation: 78 m

Current weather observation

The report was made 39 minutes ago, at 18:00 UTC
Wind 12 kt from the Southwest
Temperature 2°C
Humidity 80%
Pressure 1001 hPa
Visibility 10 km or more
Overcast at a height of 1300 ft

METAR: UWGG 061800Z 23006MPS 9999 OVC013 02/M01 Q1001 R18L/290050 TEMPO 23008G14MPS

Time: 21:39 (18:39 UTC)

Forecast

The report was made 1 hour and 42 minutes ago, at 16:57 UTC
Forecast valid from 06 at 18 UTC to 07 at 18 UTC
Wind 10 kt from the Southwest
Visibility: 6000 m
Overcast at a height of 1100 ft
Temporary
from 06 at 18 UTC to 07 at 12 UTC
Wind 16 kt from the Southwest with gusts up to 27 kt
Visibility: 4000 m
Broken clouds at a height of 700 ft
light snow, rain

TAF: UWGG 061657Z 0618/0718 22005MPS 6000 OVC011 TX00/0618Z TNM01/0703Z TEMPO 0618/0712 23008G14MPS 4000 -SNRA BKN007

Weather observations and forecasts of more than 4000 airports (METAR and TAF reports).

The available stations are represented by yellow and red dots on the map.

Hover mouse over dot to see the name of the station.

Then click to see weather observations and forecasts.

To change the map : click on the green buttons with a black cross to zoom in, on the green button with a dash to zoom out, or on the green arrows for adjacent maps.


METAR-TAF: